createdAt,value
2018-03-07T00:01:32.606Z,44.63
2018-03-07T00:04:00.843Z,42.30
2018-03-07T00:06:29.125Z,40.35
2018-03-07T00:08:58.162Z,41.22
2018-03-07T00:11:26.410Z,41.70
2018-03-07T00:13:55.418Z,43.65
2018-03-07T00:16:24.538Z,41.72
2018-03-07T00:18:52.809Z,41.85
2018-03-07T00:21:22.058Z,43.77
2018-03-07T00:23:51.109Z,43.05
2018-03-07T00:26:19.341Z,43.27
2018-03-07T00:28:48.365Z,44.17
2018-03-07T00:31:16.592Z,44.22
2018-03-07T00:33:44.958Z,44.05
2018-03-07T00:36:13.238Z,43.05
2018-03-07T00:38:41.434Z,42.20
2018-03-07T00:41:09.695Z,42.62
2018-03-07T00:43:37.976Z,44.10
2018-03-07T00:46:06.231Z,42.35
2018-03-07T00:48:34.455Z,43.20
2018-03-07T00:51:02.733Z,41.97
2018-03-07T00:53:31.134Z,40.10
2018-03-07T00:55:59.357Z,43.90
2018-03-07T00:58:28.495Z,42.10
2018-03-07T01:00:56.737Z,42.88
2018-03-07T01:03:25.735Z,43.87
2018-03-07T01:05:54.340Z,44.47
2018-03-07T01:08:22.562Z,41.50
2018-03-07T01:10:50.810Z,41.60
2018-03-07T01:13:19.043Z,42.25
2018-03-07T01:15:48.065Z,41.03
2018-03-07T01:18:16.287Z,40.00
2018-03-07T01:20:44.549Z,40.70
2018-03-07T01:23:12.793Z,41.60
2018-03-07T01:25:41.018Z,43.10
2018-03-07T01:28:11.698Z,42.53
2018-03-07T01:30:39.934Z,42.83
2018-03-07T01:33:08.340Z,42.95
2018-03-07T01:35:37.362Z,43.10
2018-03-07T01:38:05.643Z,42.92
2018-03-07T01:40:33.919Z,41.33
2018-03-07T01:43:02.196Z,40.47
2018-03-07T01:45:30.440Z,44.40
2018-03-07T01:47:58.700Z,43.60
2018-03-07T01:50:26.967Z,53.75
2018-03-07T01:52:55.189Z,43.42
2018-03-07T01:55:23.458Z,42.97
2018-03-07T01:57:51.704Z,42.47
2018-03-07T02:00:19.991Z,43.75
2018-03-07T02:02:48.358Z,44.10
2018-03-07T02:05:16.596Z,43.45
2018-03-07T02:07:44.822Z,44.80
2018-03-07T02:10:14.728Z,44.10
2018-03-07T02:12:43.777Z,45.42
2018-03-07T02:15:11.997Z,47.95
2018-03-07T02:17:41.018Z,47.62
2018-03-07T02:20:09.314Z,46.78
2018-03-07T02:22:37.613Z,45.22
2018-03-07T02:25:05.866Z,47.80
2018-03-07T02:27:34.114Z,49.25
2018-03-07T02:30:03.292Z,50.20
2018-03-07T02:32:31.494Z,49.97
2018-03-07T02:34:59.745Z,49.37
2018-03-07T02:37:28.168Z,51.72
2018-03-07T02:39:56.445Z,51.17
2018-03-07T02:42:24.692Z,53.80
2018-03-07T02:44:53.710Z,50.90
2018-03-07T02:47:21.939Z,51.05
2018-03-07T02:49:50.190Z,55.58
2018-03-07T02:52:18.504Z,50.30
2018-03-07T02:54:46.819Z,53.72
2018-03-07T02:57:15.063Z,49.33
2018-03-07T02:59:44.094Z,50.97
2018-03-07T03:02:12.328Z,49.05
2018-03-07T03:04:41.314Z,48.92
2018-03-07T03:07:09.574Z,51.50
2018-03-07T03:09:37.818Z,49.03
2018-03-07T03:12:06.047Z,51.15
2018-03-07T03:14:34.322Z,48.70
2018-03-07T03:17:03.362Z,50.60
2018-03-07T03:19:31.594Z,49.50
2018-03-07T03:21:59.860Z,51.67
2018-03-07T03:24:28.848Z,52.90
2018-03-07T03:26:57.175Z,49.97
2018-03-07T03:29:25.393Z,49.92
2018-03-07T03:31:53.632Z,48.97
2018-03-07T03:34:21.892Z,48.28
2018-03-07T03:36:50.147Z,51.60
2018-03-07T03:39:19.269Z,51.85
2018-03-07T03:41:47.548Z,51.08
2018-03-07T03:44:15.797Z,51.23
2018-03-07T03:46:44.833Z,49.78
2018-03-07T03:49:13.055Z,49.65
2018-03-07T03:51:41.296Z,50.15
2018-03-07T03:54:09.556Z,47.63
2018-03-07T03:56:37.858Z,50.67
2018-03-07T03:59:06.097Z,47.83
2018-03-07T04:01:34.356Z,47.85
2018-03-07T04:04:03.388Z,53.00
2018-03-07T04:06:31.631Z,49.45
2018-03-07T04:09:01.474Z,50.67
2018-03-07T04:11:29.703Z,47.45
2018-03-07T04:13:57.986Z,50.53
2018-03-07T04:16:26.978Z,50.28
2018-03-07T04:18:56.018Z,48.72
2018-03-07T04:21:24.262Z,50.72
2018-03-07T04:23:52.492Z,49.90
2018-03-07T04:26:20.757Z,50.28
2018-03-07T04:28:49.071Z,50.40
2018-03-07T04:31:17.290Z,56.10
2018-03-07T04:33:45.517Z,50.40
2018-03-07T04:36:15.297Z,50.85
2018-03-07T04:38:43.769Z,49.60
2018-03-07T04:41:12.038Z,49.20
2018-03-07T04:43:40.263Z,49.93
2018-03-07T04:46:08.559Z,50.17
2018-03-07T04:48:36.828Z,50.53
2018-03-07T04:51:05.862Z,48.90
2018-03-07T04:53:34.759Z,51.47
2018-03-07T04:56:03.038Z,51.15
2018-03-07T04:58:31.268Z,51.28
2018-03-07T05:01:00.272Z,52.85
2018-03-07T05:03:29.375Z,53.22
2018-03-07T05:05:57.788Z,52.75
2018-03-07T05:08:26.008Z,49.90
2018-03-07T05:10:55.043Z,52.05
2018-03-07T05:13:23.257Z,56.55
2018-03-07T05:15:51.521Z,53.17
2018-03-07T05:18:19.739Z,52.78
2018-03-07T05:20:48.767Z,53.50
2018-03-07T05:23:16.998Z,56.45
2018-03-07T05:25:45.254Z,54.50
2018-03-07T05:28:13.519Z,54.08
2018-03-07T05:30:41.757Z,51.50
2018-03-07T05:33:10.020Z,57.73
2018-03-07T05:35:39.199Z,52.05
2018-03-07T05:38:08.993Z,48.70
2018-03-07T05:40:37.224Z,52.00
2018-03-07T05:43:05.506Z,53.63
2018-03-07T05:45:33.762Z,55.10
2018-03-07T05:48:02.753Z,62.20
2018-03-07T05:50:31.757Z,57.60
2018-03-07T05:53:00.009Z,52.53
2018-03-07T05:55:29.005Z,54.87
2018-03-07T05:57:57.277Z,55.95
2018-03-07T06:00:25.669Z,52.03
2018-03-07T06:02:54.659Z,53.92
2018-03-07T06:05:23.755Z,53.87
2018-03-07T06:07:52.752Z,56.42
2018-03-07T06:10:21.809Z,56.72
2018-03-07T06:12:50.068Z,52.80
2018-03-07T06:15:18.292Z,54.60
2018-03-07T06:17:47.296Z,51.55
2018-03-07T06:20:16.319Z,55.20
2018-03-07T06:22:44.649Z,53.38
2018-03-07T06:25:12.874Z,51.20
2018-03-07T06:27:41.111Z,55.50
2018-03-07T06:30:09.346Z,56.97
2018-03-07T06:32:37.618Z,50.57
2018-03-07T06:35:05.833Z,55.33
2018-03-07T06:37:34.852Z,50.08
2018-03-07T06:40:03.093Z,55.12
2018-03-07T06:42:31.388Z,54.30
2018-03-07T06:44:59.606Z,58.83
2018-03-07T06:47:27.838Z,58.87
2018-03-07T06:49:56.875Z,59.45
2018-03-07T06:52:25.869Z,52.38
2018-03-07T06:54:54.817Z,53.53
2018-03-07T06:57:23.073Z,56.80
2018-03-07T06:59:51.313Z,60.95
2018-03-07T07:02:19.542Z,55.20
2018-03-07T07:04:48.550Z,59.47
2018-03-07T07:07:16.830Z,58.63
2018-03-07T07:09:45.078Z,54.92
2018-03-07T07:12:13.311Z,57.50
2018-03-07T07:14:41.655Z,59.67
2018-03-07T07:17:09.909Z,50.53
2018-03-07T07:19:38.190Z,56.37
2018-03-07T07:22:06.432Z,51.58
2018-03-07T07:24:34.678Z,50.75
2018-03-07T07:27:02.930Z,51.83
2018-03-07T07:29:31.930Z,48.83
2018-03-07T07:32:00.948Z,48.95
2018-03-07T07:34:29.158Z,52.65
2018-03-07T07:36:57.501Z,56.47
2018-03-07T07:39:25.732Z,48.65
2018-03-07T07:41:53.986Z,54.35
2018-03-07T07:44:22.208Z,52.25
2018-03-07T07:46:50.477Z,56.63
2018-03-07T07:49:18.787Z,55.92
2018-03-07T07:51:47.044Z,54.55
2018-03-07T07:54:16.224Z,57.37
2018-03-07T07:56:45.348Z,55.55
2018-03-07T07:59:13.607Z,55.37
2018-03-07T08:01:42.606Z,55.97
2018-03-07T08:04:10.853Z,54.83
2018-03-07T08:06:39.090Z,55.50
2018-03-07T08:09:07.330Z,55.92
2018-03-07T08:11:35.586Z,55.05
2018-03-07T08:14:03.925Z,55.00
2018-03-07T08:16:32.158Z,54.15
2018-03-07T08:19:01.151Z,56.45
2018-03-07T08:21:30.178Z,55.63
2018-03-07T08:23:58.407Z,50.30
2018-03-07T08:26:27.436Z,55.35
2018-03-07T08:28:55.703Z,54.40
2018-03-07T08:31:23.971Z,67.28
2018-03-07T08:33:52.259Z,57.62
2018-03-07T08:36:20.495Z,56.70
2018-03-07T08:38:48.762Z,54.65
2018-03-07T08:41:17.013Z,52.60
2018-03-07T08:43:45.299Z,55.40
2018-03-07T08:46:13.570Z,55.17
2018-03-07T08:48:41.828Z,53.40
2018-03-07T08:51:10.062Z,54.20
2018-03-07T08:53:39.094Z,52.65
2018-03-07T08:56:07.370Z,56.15
2018-03-07T08:58:38.299Z,56.23
2018-03-07T09:01:06.564Z,55.63
2018-03-07T09:03:35.067Z,55.20
2018-03-07T09:06:04.047Z,57.55
2018-03-07T09:08:32.290Z,55.67
2018-03-07T09:11:00.583Z,57.85
2018-03-07T09:13:28.837Z,57.72
2018-03-07T09:15:59.313Z,57.35
2018-03-07T09:18:27.603Z,55.53
2018-03-07T09:20:55.821Z,55.60
2018-03-07T09:23:24.056Z,58.67
2018-03-07T09:25:52.313Z,56.08
2018-03-07T09:28:20.532Z,56.17
2018-03-07T09:30:49.467Z,60.25
2018-03-07T09:33:17.767Z,59.83
2018-03-07T09:35:46.046Z,57.93
2018-03-07T09:38:14.340Z,51.90
2018-03-07T09:40:43.486Z,53.38
2018-03-07T09:43:12.538Z,54.17
2018-03-07T09:45:40.764Z,53.30
2018-03-07T09:48:09.812Z,45.05
2018-03-07T09:50:38.043Z,52.10
2018-03-07T09:53:07.828Z,44.05
2018-03-07T09:55:36.058Z,41.63
2018-03-07T09:58:04.299Z,38.28
2018-03-07T10:00:32.533Z,37.63
2018-03-07T10:03:00.799Z,38.10
2018-03-07T10:05:29.062Z,36.38
2018-03-07T10:07:57.321Z,39.63
2018-03-07T10:10:25.617Z,36.45
2018-03-07T10:12:53.871Z,36.80
2018-03-07T10:15:22.106Z,33.83
2018-03-07T10:17:50.714Z,33.88
2018-03-07T10:20:18.973Z,33.33
2018-03-07T10:22:47.211Z,201.57
2018-03-07T10:25:16.224Z,45.50
2018-03-07T10:27:44.499Z,28.27
2018-03-07T10:30:12.740Z,26.60
2018-03-07T10:32:41.067Z,30.42
2018-03-07T10:35:09.494Z,27.87
2018-03-07T10:37:37.762Z,25.27
2018-03-07T10:40:05.979Z,24.60
2018-03-07T10:42:34.198Z,24.70
2018-03-07T10:45:03.224Z,25.58
2018-03-07T10:47:31.441Z,24.02
2018-03-07T10:49:59.706Z,23.45
2018-03-07T10:52:29.236Z,27.10
2018-03-07T10:54:58.248Z,24.30
2018-03-07T10:57:27.256Z,24.20
2018-03-07T10:59:55.532Z,23.62
2018-03-07T11:02:23.858Z,24.15
2018-03-07T11:04:52.219Z,24.58
2018-03-07T11:07:20.476Z,23.98
2018-03-07T11:09:48.701Z,23.12
2018-03-07T11:12:16.967Z,24.45
2018-03-07T11:14:45.260Z,27.58
2018-03-07T11:17:13.521Z,24.27
2018-03-07T11:19:41.772Z,25.52
2018-03-07T11:22:10.013Z,26.65
2018-03-07T11:24:38.276Z,27.00
2018-03-07T11:27:07.322Z,24.45
2018-03-07T11:29:36.348Z,26.48
2018-03-07T11:32:04.575Z,23.92
2018-03-07T11:34:32.829Z,26.35
2018-03-07T11:37:01.841Z,27.42
2018-03-07T11:39:30.086Z,23.00
2018-03-07T11:41:59.101Z,26.07
2018-03-07T11:44:28.890Z,24.52
2018-03-07T11:46:57.148Z,25.95
2018-03-07T11:49:25.346Z,25.50
2018-03-07T11:51:53.586Z,26.15
2018-03-07T11:54:21.821Z,26.13
2018-03-07T11:56:50.064Z,26.17
2018-03-07T11:59:18.288Z,28.90
2018-03-07T12:01:46.664Z,28.45
2018-03-07T12:04:14.939Z,28.92
2018-03-07T12:06:43.192Z,27.58
2018-03-07T12:09:11.465Z,32.40
2018-03-07T12:11:39.699Z,29.42
2018-03-07T12:14:07.941Z,30.88
2018-03-07T12:16:36.174Z,73.00
2018-03-07T12:19:04.416Z,37.60
2018-03-07T12:21:33.823Z,37.75
2018-03-07T12:24:02.060Z,31.37
2018-03-07T12:26:30.323Z,30.58
2018-03-07T12:28:59.337Z,30.20
2018-03-07T12:31:27.566Z,31.07
2018-03-07T12:33:55.804Z,31.83
2018-03-07T12:36:24.078Z,29.03
2018-03-07T12:38:52.336Z,29.35
2018-03-07T12:41:20.581Z,33.53
2018-03-07T12:43:49.632Z,31.02
2018-03-07T12:46:17.859Z,30.60
2018-03-07T12:48:46.880Z,30.77
2018-03-07T12:51:15.131Z,29.27
2018-03-07T12:53:43.392Z,30.25
2018-03-07T12:56:11.640Z,29.35
2018-03-07T12:58:40.093Z,32.53
2018-03-07T13:01:08.321Z,32.50
2018-03-07T13:03:36.683Z,33.15
2018-03-07T13:06:04.950Z,33.67
2018-03-07T13:08:33.902Z,33.95
2018-03-07T13:11:02.200Z,34.07
2018-03-07T13:13:30.416Z,31.67
2018-03-07T13:15:58.688Z,35.70
2018-03-07T13:18:26.925Z,34.95
2018-03-07T13:20:55.199Z,36.55
2018-03-07T13:23:23.410Z,36.67
2018-03-07T13:25:51.672Z,39.00
2018-03-07T13:28:19.884Z,39.15
2018-03-07T13:30:48.128Z,41.58
2018-03-07T13:33:16.402Z,43.60
2018-03-07T13:35:44.635Z,42.95
2018-03-07T13:38:13.636Z,42.97
2018-03-07T13:40:41.891Z,47.00
2018-03-07T13:43:10.133Z,43.50
2018-03-07T13:45:38.376Z,42.47
2018-03-07T13:48:06.616Z,45.83
2018-03-07T13:50:34.894Z,44.90
2018-03-07T13:53:03.115Z,47.07
2018-03-07T13:55:31.363Z,45.58
2018-03-07T13:57:59.630Z,51.60
2018-03-07T14:00:28.232Z,46.97
2018-03-07T14:02:56.488Z,47.08
2018-03-07T14:05:25.577Z,48.87
2018-03-07T14:07:53.792Z,48.80
2018-03-07T14:10:22.070Z,49.63
2018-03-07T14:12:50.301Z,48.13
2018-03-07T14:15:18.535Z,51.13
2018-03-07T14:17:46.868Z,51.45
2018-03-07T14:20:15.840Z,50.35
2018-03-07T14:22:44.144Z,49.30
2018-03-07T14:25:12.396Z,48.67
2018-03-07T14:27:40.618Z,50.78
2018-03-07T14:30:09.550Z,57.72
2018-03-07T14:32:38.408Z,96.78
2018-03-07T14:35:06.670Z,54.88
2018-03-07T14:37:34.908Z,51.30
2018-03-07T14:40:03.161Z,53.67
2018-03-07T14:42:31.413Z,52.83
2018-03-07T14:45:00.392Z,52.40
2018-03-07T14:47:28.809Z,53.20
2018-03-07T14:49:57.061Z,52.65
2018-03-07T14:52:25.338Z,57.08
2018-03-07T14:54:54.339Z,54.50
2018-03-07T14:57:22.602Z,51.83
2018-03-07T14:59:50.828Z,50.72
2018-03-07T15:02:19.152Z,52.35
2018-03-07T15:04:47.436Z,57.30
2018-03-07T15:07:15.677Z,55.15
2018-03-07T15:09:44.792Z,54.75
2018-03-07T15:12:13.048Z,54.17
2018-03-07T15:14:42.146Z,58.97
2018-03-07T15:17:11.161Z,53.70
2018-03-07T15:19:39.406Z,51.80
2018-03-07T15:22:07.675Z,49.78
2018-03-07T15:24:35.878Z,50.38
2018-03-07T15:27:04.101Z,52.58
2018-03-07T15:29:32.353Z,55.28
2018-03-07T15:32:00.701Z,52.72
2018-03-07T15:34:29.734Z,54.95
2018-03-07T15:36:58.013Z,56.35
2018-03-07T15:39:26.249Z,55.05
2018-03-07T15:41:55.252Z,54.65
2018-03-07T15:44:23.518Z,56.95
2018-03-07T15:46:52.629Z,56.00
2018-03-07T15:49:20.868Z,54.08
2018-03-07T15:51:49.129Z,55.63
2018-03-07T15:54:17.380Z,56.97
2018-03-07T15:56:45.597Z,54.90
2018-03-07T15:59:13.903Z,53.35
2018-03-07T16:01:42.205Z,53.35
2018-03-07T16:04:10.448Z,54.28
2018-03-07T16:06:39.444Z,60.83
2018-03-07T16:09:09.138Z,57.88
2018-03-07T16:11:37.413Z,56.97
2018-03-07T16:14:06.435Z,57.57
2018-03-07T16:16:34.745Z,54.85
2018-03-07T16:19:03.001Z,54.60
2018-03-07T16:21:31.228Z,58.10
2018-03-07T16:23:59.475Z,58.50
2018-03-07T16:26:28.279Z,56.17
2018-03-07T16:28:56.516Z,57.47
2018-03-07T16:31:24.801Z,59.60
2018-03-07T16:33:53.020Z,56.20
2018-03-07T16:36:21.270Z,58.28
2018-03-07T16:38:49.503Z,52.22
2018-03-07T16:41:17.757Z,55.45
2018-03-07T16:43:46.080Z,56.63
2018-03-07T16:46:14.235Z,57.70
2018-03-07T16:48:42.488Z,56.50
2018-03-07T16:51:10.807Z,57.95
2018-03-07T16:53:39.025Z,57.55
2018-03-07T16:56:08.034Z,56.63
2018-03-07T16:58:37.416Z,55.17
2018-03-07T17:01:05.651Z,55.70
2018-03-07T17:03:33.885Z,59.35
2018-03-07T17:06:02.390Z,62.53
2018-03-07T17:08:30.666Z,62.35
2018-03-07T17:10:59.756Z,61.35
2018-03-07T17:13:27.921Z,63.25
2018-03-07T17:15:56.912Z,65.15
2018-03-07T17:18:26.672Z,64.80
2018-03-07T17:20:54.920Z,62.17
2018-03-07T17:23:23.210Z,63.60
2018-03-07T17:25:52.528Z,64.05
2018-03-07T17:28:22.418Z,64.90
2018-03-07T17:30:50.665Z,66.62
2018-03-07T17:33:19.200Z,68.30
2018-03-07T17:35:47.397Z,68.07
2018-03-07T17:38:15.921Z,65.60
2018-03-07T17:40:44.187Z,64.57
2018-03-07T17:43:12.460Z,64.50
2018-03-07T17:45:41.448Z,64.80
2018-03-07T17:48:09.659Z,67.90
2018-03-07T17:50:37.954Z,66.80
2018-03-07T17:53:06.183Z,66.28
2018-03-07T17:55:35.193Z,68.57
2018-03-07T17:58:03.418Z,67.80
2018-03-07T18:00:31.781Z,70.28
2018-03-07T18:03:00.016Z,66.30
2018-03-07T18:05:28.329Z,69.95
2018-03-07T18:07:56.714Z,71.25
2018-03-07T18:10:24.974Z,78.28
2018-03-07T18:12:53.269Z,71.65
2018-03-07T18:15:21.541Z,71.30
2018-03-07T18:17:49.877Z,68.50
2018-03-07T18:20:19.007Z,70.45
2018-03-07T18:22:47.264Z,69.68
2018-03-07T18:25:15.519Z,72.43
2018-03-07T18:27:44.527Z,66.57
2018-03-07T18:30:12.772Z,73.35
2018-03-07T18:32:41.781Z,71.73
2018-03-07T18:35:10.009Z,64.68
2018-03-07T18:37:38.259Z,65.10
2018-03-07T18:40:06.505Z,62.78
2018-03-07T18:42:35.565Z,63.60
2018-03-07T18:45:03.815Z,65.12
2018-03-07T18:47:32.035Z,63.45
2018-03-07T18:50:00.306Z,69.53
2018-03-07T18:52:28.573Z,69.72
2018-03-07T18:54:56.858Z,60.70
2018-03-07T18:57:25.080Z,60.67
2018-03-07T18:59:53.313Z,63.75
2018-03-07T19:02:21.554Z,55.60
2018-03-07T19:04:49.801Z,57.05
2018-03-07T19:07:18.059Z,60.05
2018-03-07T19:09:47.168Z,57.67
2018-03-07T19:12:15.480Z,57.17
2018-03-07T19:14:43.724Z,53.17
2018-03-07T19:17:12.726Z,54.17
2018-03-07T19:19:41.750Z,51.72
2018-03-07T19:22:10.034Z,54.30
2018-03-07T19:24:38.253Z,49.38
2018-03-07T19:27:06.492Z,47.27
2018-03-07T19:29:34.728Z,50.10
2018-03-07T19:32:02.997Z,50.42
2018-03-07T19:34:32.023Z,50.72
2018-03-07T19:37:00.361Z,51.93
2018-03-07T19:39:28.581Z,52.45
2018-03-07T19:41:56.851Z,51.13
2018-03-07T19:44:25.129Z,51.92
2018-03-07T19:46:53.367Z,51.47
2018-03-07T19:49:21.637Z,52.60
2018-03-07T19:51:49.862Z,52.42
2018-03-07T19:54:18.167Z,51.33
2018-03-07T19:56:46.387Z,54.03
2018-03-07T19:59:14.654Z,55.30
2018-03-07T20:01:43.723Z,56.22
2018-03-07T20:04:11.953Z,58.57
2018-03-07T20:06:40.237Z,55.85
2018-03-07T20:09:08.535Z,55.33
2018-03-07T20:11:36.802Z,58.70
2018-03-07T20:14:05.067Z,58.40
2018-03-07T20:16:33.315Z,59.10
2018-03-07T20:19:02.342Z,56.78
2018-03-07T20:21:30.646Z,57.05
2018-03-07T20:23:58.922Z,56.85
2018-03-07T20:26:27.261Z,57.45
2018-03-07T20:28:57.080Z,60.30
2018-03-07T20:31:25.387Z,59.72
2018-03-07T20:33:53.642Z,57.10
2018-03-07T20:36:22.102Z,59.17
2018-03-07T20:38:51.274Z,55.97
2018-03-07T20:41:20.367Z,57.13
2018-03-07T20:43:48.640Z,54.33
2018-03-07T20:46:17.646Z,56.83
2018-03-07T20:48:46.652Z,57.53
2018-03-07T20:51:14.937Z,59.25
2018-03-07T20:53:43.201Z,57.40
2018-03-07T20:56:11.591Z,55.17
2018-03-07T20:58:40.582Z,53.97
2018-03-07T21:01:08.802Z,58.42
2018-03-07T21:03:37.418Z,58.58
2018-03-07T21:06:05.609Z,56.90
2018-03-07T21:08:33.850Z,55.97
2018-03-07T21:11:02.856Z,56.40
2018-03-07T21:13:31.913Z,69.05
2018-03-07T21:16:00.211Z,56.95
2018-03-07T21:18:28.464Z,64.82
2018-03-07T21:20:56.750Z,58.03
2018-03-07T21:23:24.996Z,61.88
2018-03-07T21:25:53.220Z,55.67
2018-03-07T21:28:21.516Z,58.35
2018-03-07T21:30:50.666Z,52.58
2018-03-07T21:33:19.547Z,55.67
2018-03-07T21:35:47.835Z,100.82
2018-03-07T21:38:16.119Z,111.00
2018-03-07T21:40:44.462Z,57.70
2018-03-07T21:43:13.653Z,54.92
2018-03-07T21:45:41.926Z,58.10
2018-03-07T21:48:10.179Z,59.33
2018-03-07T21:50:38.428Z,56.85
2018-03-07T21:53:06.644Z,55.17
2018-03-07T21:55:35.667Z,54.97
2018-03-07T21:58:03.894Z,56.85
2018-03-07T22:00:32.171Z,55.45
2018-03-07T22:03:00.427Z,53.75
2018-03-07T22:05:28.718Z,51.08
2018-03-07T22:07:56.968Z,53.17
2018-03-07T22:10:25.228Z,57.65
2018-03-07T22:12:53.461Z,53.87
2018-03-07T22:15:22.496Z,51.70
2018-03-07T22:17:50.795Z,49.73
2018-03-07T22:20:19.070Z,51.50
2018-03-07T22:22:47.527Z,50.83
2018-03-07T22:25:15.748Z,48.65
2018-03-07T22:27:44.026Z,47.80
2018-03-07T22:30:13.026Z,84.73
2018-03-07T22:32:41.311Z,154.55
2018-03-07T22:35:10.359Z,53.28
2018-03-07T22:37:38.986Z,58.67
2018-03-07T22:40:07.206Z,61.50
2018-03-07T22:42:35.442Z,63.75
2018-03-07T22:45:03.697Z,69.30
2018-03-07T22:47:32.025Z,64.85
2018-03-07T22:50:00.293Z,59.65
2018-03-07T22:52:28.524Z,58.13
2018-03-07T22:54:56.804Z,63.08
2018-03-07T22:57:25.146Z,59.35
2018-03-07T22:59:53.424Z,61.60
2018-03-07T23:02:21.679Z,61.25
2018-03-07T23:04:50.001Z,63.58
2018-03-07T23:07:18.270Z,66.60
2018-03-07T23:09:46.534Z,65.67
2018-03-07T23:12:14.802Z,66.90
2018-03-07T23:14:43.146Z,64.35
2018-03-07T23:17:12.230Z,67.87
2018-03-07T23:19:40.553Z,69.65
2018-03-07T23:22:08.796Z,69.68
2018-03-07T23:24:37.120Z,68.22
2018-03-07T23:27:05.356Z,68.05
2018-03-07T23:29:33.672Z,67.87
2018-03-07T23:32:01.971Z,67.67
2018-03-07T23:34:30.234Z,69.37
2018-03-07T23:36:58.477Z,73.28
2018-03-07T23:39:26.829Z,72.47
2018-03-07T23:41:55.072Z,68.10
2018-03-07T23:44:23.464Z,70.03
2018-03-07T23:46:51.714Z,71.22
2018-03-07T23:49:19.996Z,68.83
2018-03-07T23:51:48.308Z,70.22
2018-03-07T23:54:16.509Z,65.87
2018-03-07T23:56:44.800Z,67.93
2018-03-07T23:59:13.113Z,67.12
